Time;durP1;ratioP1;P1;durP2;ratioP2;P2;SDS_P1;SDS_P2;PMS_P1;PMS_P2;Temp;Humidity;BMP_temperature;BMP_pressure;BME280_temperature;BME280_humidity;BME280_pressure;Samples;Min_cycle;Max_cycle;Signal;HPM_P1;HPM_P2
2024/03/30 00:01:35;;;;;;;;;;;8.20;99.90;;;7.39;100.00;96127.56;4961740;28;2433;-69
2024/03/30 00:04:01;;;;;;;;;;;8.20;99.90;;;7.25;100.00;96128.31;4976016;28;1410;-69
2024/03/30 00:06:27;;;;;;;;;;;8.20;99.90;;;7.22;100.00;96121.56;4962336;28;1616;-69
2024/03/30 00:08:54;;;;;;;;;;;8.10;99.90;;;7.22;100.00;96111.25;4960899;28;1475;-69
2024/03/30 00:11:20;;;;;;;;;;;8.10;99.90;;;7.20;100.00;96110.50;4959450;28;2020;-69
2024/03/30 00:13:46;;;;;;;;;;;8.10;99.90;;;7.21;100.00;96107.00;4943914;28;1860;-69
2024/03/30 00:16:12;;;;;;;;;;;8.00;99.90;;;7.20;100.00;96101.91;4993495;28;2289;-69
2024/03/30 00:18:39;;;;;;;;;;;8.00;99.90;;;7.27;100.00;96104.09;4974002;28;1906;-69
2024/03/30 00:21:04;;;;;;;;;;;8.10;99.90;;;7.20;100.00;96102.75;4961529;28;3568;-69
2024/03/30 00:23:31;;;;;;;;;;;8.10;99.90;;;7.21;100.00;96103.59;4991726;28;1624;-69
2024/03/30 00:25:57;;;;;;;;;;;8.00;99.90;;;7.00;100.00;96098.66;4976087;28;1332;-69
2024/03/30 00:28:24;;;;;;;;;;;7.90;99.90;;;6.99;100.00;96088.41;4957300;28;1777;-69
2024/03/30 00:30:51;;;;;;;;;;;7.90;99.90;;;6.87;100.00;96090.69;4962558;28;2300;-69
2024/03/30 00:33:17;;;;;;;;;;;7.80;99.90;;;6.78;100.00;96078.28;4958876;28;2374;-69
2024/03/30 00:35:44;;;;;;;;;;;7.80;99.90;;;6.78;100.00;96090.34;4958547;28;1699;-69
2024/03/30 00:38:10;;;;;;;;;;;7.70;99.90;;;6.60;100.00;96090.38;4950073;28;1907;-69
2024/03/30 00:40:36;;;;;;;;;;;7.60;99.90;;;6.63;100.00;96085.03;4963824;28;1536;-69
2024/03/30 00:43:03;;;;;;;;;;;7.60;99.90;;;6.64;100.00;96091.06;4956964;28;2016;-69
2024/03/30 00:45:29;;;;;;;;;;;7.60;99.90;;;6.37;100.00;96083.78;4945639;28;1852;-69
2024/03/30 00:47:56;;;;;;;;;;;7.50;99.90;;;6.41;100.00;96089.59;4973547;28;1614;-69
2024/03/30 00:50:22;;;;;;;;;;;7.50;99.90;;;6.46;100.00;96085.06;4958200;28;1603;-69
2024/03/30 00:52:48;;;;;;;;;;;7.50;99.90;;;6.61;100.00;96080.88;4957871;28;1849;-69
2024/03/30 00:55:14;;;;;;;;;;;7.40;99.90;;;6.55;100.00;96079.47;4957879;28;1646;-69
2024/03/30 00:57:42;;;;;;;;;;;7.50;99.90;;;6.47;100.00;96079.81;4978366;28;2044;-69
2024/03/30 01:00:15;;;;;;;;;;;7.40;99.90;;;6.36;100.00;96081.28;4958788;28;1460;-69
2024/03/30 01:02:42;;;;;;;;;;;7.40;99.90;;;6.31;100.00;96085.84;4943147;28;1668;-69
2024/03/30 01:05:08;;;;;;;;;;;7.30;99.90;;;6.35;100.00;96085.59;4972523;28;1577;-69
2024/03/30 01:07:34;;;;;;;;;;;7.30;99.90;;;6.28;100.00;96082.50;4959883;28;1859;-69
2024/03/30 01:10:03;;;;;;;;;;;7.30;99.90;;;6.19;100.00;96087.28;4960751;28;1591;-69
2024/03/30 01:12:30;;;;;;;;;;;7.20;99.90;;;6.24;100.00;96080.16;4959902;28;1532;-69
2024/03/30 01:14:56;;;;;;;;;;;7.20;99.90;;;6.13;100.00;96085.81;4959162;28;1727;-69
2024/03/30 01:17:23;;;;;;;;;;;7.20;99.90;;;6.12;100.00;96083.34;4958123;28;3535;-69
2024/03/30 01:19:49;;;;;;;;;;;7.10;99.90;;;6.14;100.00;96072.03;4954334;28;2443;-69
2024/03/30 01:22:16;;;;;;;;;;;7.10;99.90;;;6.23;100.00;96075.91;4962576;28;1575;-69
2024/03/30 01:24:42;;;;;;;;;;;7.10;99.90;;;6.21;100.00;96078.56;4958438;28;1909;-69
2024/03/30 01:27:11;;;;;;;;;;;7.10;99.90;;;6.06;100.00;96077.56;4944209;28;2265;-69
2024/03/30 01:29:37;;;;;;;;;;;7.10;99.90;;;6.11;100.00;96079.06;4988297;28;1613;-69
2024/03/30 01:32:03;;;;;;;;;;;7.10;99.90;;;6.01;100.00;96074.38;4959969;28;1464;-69
2024/03/30 01:34:30;;;;;;;;;;;7.10;99.90;;;6.13;100.00;96072.94;4960162;28;1507;-69
2024/03/30 01:36:56;;;;;;;;;;;7.00;99.90;;;6.12;100.00;96076.44;4959515;28;1651;-69
2024/03/30 01:39:22;;;;;;;;;;;7.00;99.90;;;6.18;100.00;96071.00;4959216;28;2269;-69
2024/03/30 01:41:48;;;;;;;;;;;7.00;99.90;;;6.24;100.00;96077.56;4943785;28;1337;-69
2024/03/30 01:44:14;;;;;;;;;;;7.10;99.90;;;6.44;100.00;96084.31;4959458;28;1668;-69
2024/03/30 01:46:41;;;;;;;;;;;7.20;99.90;;;6.47;100.00;96086.72;4958281;28;1564;-69
2024/03/30 01:49:08;;;;;;;;;;;7.30;99.90;;;6.59;100.00;96078.41;4959443;28;1583;-69
2024/03/30 01:51:34;;;;;;;;;;;7.40;99.90;;;6.52;100.00;96077.00;4960769;28;2191;-69
2024/03/30 01:54:01;;;;;;;;;;;7.40;99.90;;;6.65;100.00;96085.81;4959813;28;1361;-69
2024/03/30 01:56:27;;;;;;;;;;;7.50;99.90;;;6.72;100.00;96083.75;4956242;28;1472;-69
2024/03/30 01:58:53;;;;;;;;;;;7.50;99.90;;;6.79;100.00;96079.94;4957615;28;1902;-69
2024/03/30 02:01:20;;;;;;;;;;;7.60;99.90;;;6.76;100.00;96077.53;4961133;28;1728;-69
2024/03/30 02:03:48;;;;;;;;;;;7.60;99.90;;;6.69;100.00;96077.00;4975186;28;1699;-69
2024/03/30 02:06:14;;;;;;;;;;;7.50;99.90;;;6.58;100.00;96070.72;4975320;28;3286;-69
2024/03/30 02:08:40;;;;;;;;;;;7.40;99.90;;;6.36;100.00;96058.91;4963102;28;1383;-69
2024/03/30 02:11:08;;;;;;;;;;;7.40;99.90;;;6.43;100.00;96057.72;4993220;28;1507;-69
2024/03/30 02:13:34;;;;;;;;;;;7.30;99.90;;;6.59;100.00;96052.63;4968105;28;1559;-69
2024/03/30 02:16:00;;;;;;;;;;;7.40;99.90;;;6.93;100.00;96045.69;4963965;28;2088;-69
2024/03/30 02:18:26;;;;;;;;;;;7.40;99.90;;;6.79;100.00;96036.09;4961176;28;1988;-69
2024/03/30 02:20:51;;;;;;;;;;;7.40;99.90;;;6.89;100.00;96019.25;4962393;28;2514;-69
2024/03/30 02:23:17;;;;;;;;;;;7.40;99.90;;;6.79;100.00;96009.47;4947577;28;1733;-69
2024/03/30 02:25:43;;;;;;;;;;;7.40;99.90;;;6.91;100.00;96007.09;4960675;28;1427;-69
2024/03/30 02:28:09;;;;;;;;;;;7.50;99.90;;;6.61;100.00;95998.38;4978255;28;1681;-69
2024/03/30 02:30:35;;;;;;;;;;;7.40;99.90;;;6.79;100.00;95994.00;4992024;28;1720;-69
2024/03/30 02:33:01;;;;;;;;;;;7.40;99.90;;;6.38;100.00;95987.50;4977568;28;1634;-69
2024/03/30 02:35:27;;;;;;;;;;;7.30;99.90;;;6.39;100.00;95990.94;4977824;28;2035;-69
2024/03/30 02:37:54;;;;;;;;;;;7.20;99.90;;;6.40;100.00;95979.72;4959075;28;1993;-69
2024/03/30 02:40:22;;;;;;;;;;;7.10;99.90;;;6.36;100.00;95986.75;4944496;28;1262;-69
2024/03/30 02:42:49;;;;;;;;;;;7.00;99.90;;;6.22;100.00;95990.03;4958864;28;1341;-69
2024/03/30 02:45:15;;;;;;;;;;;6.90;99.90;;;6.22;100.00;95989.22;4962732;28;1448;-69
2024/03/30 02:47:41;;;;;;;;;;;6.70;99.90;;;5.96;100.00;95981.06;4976322;28;3209;-69
2024/03/30 02:50:07;;;;;;;;;;;6.70;99.90;;;6.09;100.00;95983.88;4963350;28;1263;-69
2024/03/30 02:52:33;;;;;;;;;;;6.70;99.90;;;6.02;100.00;95982.47;4962825;28;1718;-69
2024/03/30 02:54:59;;;;;;;;;;;6.70;99.90;;;6.14;100.00;95986.22;4961518;28;1609;-69
2024/03/30 02:57:25;;;;;;;;;;;6.70;99.90;;;6.01;100.00;95979.06;4964152;28;1996;-69
2024/03/30 02:59:51;;;;;;;;;;;6.70;99.90;;;5.99;100.00;95975.75;4962199;28;1723;-69
2024/03/30 03:02:17;;;;;;;;;;;6.70;99.90;;;5.98;100.00;95970.69;4962838;28;2065;-69
2024/03/30 03:04:43;;;;;;;;;;;6.70;99.90;;;6.11;100.00;95970.88;4961165;28;1628;-69
2024/03/30 03:07:09;;;;;;;;;;;6.70;99.90;;;6.06;100.00;95961.63;4959375;28;1851;-69
2024/03/30 03:09:35;;;;;;;;;;;6.70;99.90;;;6.13;100.00;95972.47;4961593;28;1457;-69
2024/03/30 03:12:01;;;;;;;;;;;6.70;99.90;;;6.21;100.00;95970.34;4960001;28;1851;-69
2024/03/30 03:14:30;;;;;;;;;;;6.80;99.90;;;6.32;100.00;95964.66;4987865;28;1663;-69
2024/03/30 03:16:56;;;;;;;;;;;6.80;99.90;;;6.42;100.00;95955.53;4960042;28;2028;-69
2024/03/30 03:19:21;;;;;;;;;;;6.90;99.90;;;6.41;100.00;95963.31;4959496;28;1942;-69
2024/03/30 03:21:47;;;;;;;;;;;6.90;99.90;;;6.26;100.00;95960.63;4992991;28;1870;-69
2024/03/30 03:24:14;;;;;;;;;;;6.90;99.90;;;6.11;100.00;95963.97;4996669;28;1404;-69
2024/03/30 03:26:39;;;;;;;;;;;6.80;99.90;;;5.76;100.00;95961.41;4965150;28;1722;-69
2024/03/30 03:29:05;;;;;;;;;;;6.80;99.90;;;5.94;100.00;95977.72;4964765;28;1343;-69
2024/03/30 03:31:31;;;;;;;;;;;6.70;99.90;;;5.74;100.00;95976.09;4963458;28;3271;-69
2024/03/30 03:33:57;;;;;;;;;;;6.60;99.90;;;5.64;100.00;95968.00;4964112;28;1656;-69
2024/03/30 03:36:23;;;;;;;;;;;6.50;99.90;;;5.44;100.00;95971.53;4963031;28;1601;-69
2024/03/30 03:38:49;;;;;;;;;;;6.50;99.90;;;5.46;100.00;95966.31;4963190;28;1910;-69
2024/03/30 03:41:15;;;;;;;;;;;6.50;99.90;;;5.37;100.00;95977.03;4975522;28;1612;-69
2024/03/30 03:43:42;;;;;;;;;;;6.40;99.90;;;5.35;100.00;95971.97;4960833;28;1603;-69
2024/03/30 03:46:08;;;;;;;;;;;6.20;99.90;;;5.22;100.00;95974.31;4978113;28;2461;-69
2024/03/30 03:48:34;;;;;;;;;;;6.10;99.90;;;5.11;100.00;95978.25;4962988;28;1615;-69
2024/03/30 03:51:00;;;;;;;;;;;6.00;99.90;;;5.08;100.00;95974.09;4966914;28;2427;-69
2024/03/30 03:53:25;;;;;;;;;;;6.00;99.90;;;5.12;100.00;95980.75;4968213;28;2702;-69
2024/03/30 03:55:51;;;;;;;;;;;6.00;99.90;;;5.16;100.00;95974.56;4966126;28;1639;-69
2024/03/30 03:58:17;;;;;;;;;;;6.10;99.90;;;5.19;100.00;95983.88;4963599;28;1899;-69
2024/03/30 04:00:43;;;;;;;;;;;6.00;99.90;;;5.18;100.00;95967.63;4994792;28;1598;-69
2024/03/30 04:03:09;;;;;;;;;;;6.00;99.90;;;5.15;100.00;95974.63;4961595;28;1641;-69
2024/03/30 04:05:35;;;;;;;;;;;6.00;99.90;;;5.21;100.00;95974.34;4962316;28;1402;-69
2024/03/30 04:08:02;;;;;;;;;;;6.10;99.90;;;5.30;100.00;95976.50;4979986;28;2062;-69
2024/03/30 04:10:28;;;;;;;;;;;6.10;99.90;;;5.34;100.00;95970.31;4966418;28;1598;-69
2024/03/30 04:12:53;;;;;;;;;;;6.20;99.90;;;5.27;100.00;95979.22;4963492;28;1599;-69
2024/03/30 04:15:19;;;;;;;;;;;6.20;99.90;;;5.50;100.00;95978.13;4964944;28;3487;-69
2024/03/30 04:17:47;;;;;;;;;;;6.30;99.90;;;5.48;100.00;95973.97;4962682;28;1907;-69
2024/03/30 04:20:13;;;;;;;;;;;6.30;99.90;;;5.62;100.00;95974.13;4976239;28;1611;-69
2024/03/30 04:22:39;;;;;;;;;;;6.40;99.90;;;5.65;100.00;95979.13;4962159;28;1819;-69
2024/03/30 04:25:07;;;;;;;;;;;6.40;99.90;;;5.69;100.00;95972.09;4960835;28;1607;-69
2024/03/30 04:27:32;;;;;;;;;;;6.50;99.90;;;5.62;100.00;95968.97;4962145;28;1772;-69
2024/03/30 04:29:58;;;;;;;;;;;6.50;99.90;;;5.63;100.00;95973.19;4961174;28;2051;-69
2024/03/30 04:32:24;;;;;;;;;;;6.50;99.90;;;5.51;100.00;95972.06;4983728;28;1535;-69
2024/03/30 04:34:50;;;;;;;;;;;6.50;99.90;;;5.43;100.00;95964.72;4961680;28;1643;-69
2024/03/30 04:37:16;;;;;;;;;;;6.50;99.90;;;5.38;100.00;95968.41;4979039;28;1559;-69
2024/03/30 04:39:42;;;;;;;;;;;6.40;99.90;;;5.41;100.00;95963.97;4964748;28;1910;-68
2024/03/30 04:42:11;;;;;;;;;;;6.30;99.90;;;5.26;100.00;95954.38;4994891;28;1811;-69
2024/03/30 04:44:37;;;;;;;;;;;6.30;99.90;;;5.50;100.00;95956.72;4962995;28;2092;-69
2024/03/30 04:47:03;;;;;;;;;;;6.30;99.90;;;5.45;100.00;95962.06;4952652;28;1602;-69
2024/03/30 04:49:29;;;;;;;;;;;6.40;99.90;;;5.47;100.00;95946.56;4966090;28;1623;-69
2024/03/30 04:51:56;;;;;;;;;;;6.40;99.90;;;5.37;100.00;95956.47;4961452;28;1581;-69
2024/03/30 04:54:22;;;;;;;;;;;6.40;99.90;;;5.38;100.00;95956.41;4995780;28;1594;-69
2024/03/30 04:56:48;;;;;;;;;;;6.30;99.90;;;5.43;100.00;95957.00;4962251;28;1764;-69
2024/03/30 04:59:14;;;;;;;;;;;6.40;99.90;;;5.61;100.00;95944.13;4961217;28;3242;-69
2024/03/30 05:01:40;;;;;;;;;;;6.40;99.90;;;5.69;100.00;95949.75;4965225;28;1603;-69
2024/03/30 05:04:06;;;;;;;;;;;6.50;99.90;;;5.69;100.00;95951.50;4965267;28;1827;-69
2024/03/30 05:06:32;;;;;;;;;;;6.50;99.90;;;5.51;100.00;95951.47;4978058;28;1743;-69
2024/03/30 05:08:58;;;;;;;;;;;6.40;99.90;;;5.40;100.00;95941.69;4961280;28;1541;-69
2024/03/30 05:11:24;;;;;;;;;;;6.30;99.90;;;5.57;100.00;95940.06;4963712;28;1801;-69
2024/03/30 05:13:51;;;;;;;;;;;6.40;99.90;;;5.62;100.00;95936.34;4961086;28;1483;-69
2024/03/30 05:16:17;;;;;;;;;;;6.40;99.90;;;5.64;100.00;95934.53;4974483;28;1940;-69
2024/03/30 05:18:43;;;;;;;;;;;6.40;99.90;;;5.69;100.00;95938.63;4959887;28;1911;-69
2024/03/30 05:21:09;;;;;;;;;;;6.50;99.90;;;5.66;100.00;95934.47;4960032;28;1368;-69
2024/03/30 05:23:37;;;;;;;;;;;6.50;99.90;;;5.50;100.00;95926.66;4966873;28;1626;-69
2024/03/30 05:26:05;;;;;;;;;;;6.50;99.90;;;5.60;100.00;95925.28;4960470;28;1536;-69
2024/03/30 05:28:33;;;;;;;;;;;6.50;99.90;;;5.50;100.00;95921.50;4967896;28;1630;-69
2024/03/30 05:31:04;;;;;;;;;;;6.50;99.90;;;5.56;100.00;95920.38;4960591;28;2060;-69
2024/03/30 05:33:29;;;;;;;;;;;6.50;99.90;;;5.56;100.00;95925.50;4961438;28;1600;-68
2024/03/30 05:35:55;;;;;;;;;;;6.50;99.90;;;5.62;100.00;95920.06;4977186;28;1594;-69
2024/03/30 05:38:21;;;;;;;;;;;6.50;99.90;;;5.78;100.00;95930.44;4959340;28;1993;-69
2024/03/30 05:40:48;;;;;;;;;;;6.60;99.90;;;5.79;100.00;95932.09;4961642;28;1903;-69
2024/03/30 05:43:14;;;;;;;;;;;6.60;99.90;;;5.73;100.00;95928.09;4993378;28;3336;-69
2024/03/30 05:45:42;;;;;;;;;;;6.60;99.90;;;5.70;100.00;95927.41;4959705;28;1557;-69
2024/03/30 05:48:08;;;;;;;;;;;6.60;99.90;;;5.69;100.00;95926.56;4962643;28;1651;-69
2024/03/30 05:50:35;;;;;;;;;;;6.60;99.90;;;5.89;100.00;95914.47;4963387;28;2447;-69
2024/03/30 05:53:01;;;;;;;;;;;6.70;99.90;;;5.85;100.00;95916.34;4951256;28;1575;-69
2024/03/30 05:55:28;;;;;;;;;;;6.80;99.90;;;5.83;100.00;95913.84;4995938;28;1472;-69
2024/03/30 05:58:02;;;;;;;;;;;6.70;99.90;;;5.91;100.00;95913.47;4981218;28;1934;-69
2024/03/30 06:00:28;;;;;;;;;;;6.80;99.90;;;6.05;100.00;95912.81;4961031;28;1487;-69
2024/03/30 06:02:54;;;;;;;;;;;6.80;99.90;;;6.07;100.00;95913.56;4961552;28;2224;-69
2024/03/30 06:05:20;;;;;;;;;;;6.90;99.90;;;6.37;100.00;95916.28;4960664;28;2315;-69
2024/03/30 06:07:46;;;;;;;;;;;6.90;99.90;;;6.42;100.00;95918.63;4947987;28;1258;-69
2024/03/30 06:10:12;;;;;;;;;;;7.00;99.90;;;6.44;100.00;95919.38;4963905;28;1717;-69
2024/03/30 06:12:38;;;;;;;;;;;7.10;99.90;;;6.54;100.00;95914.56;4959328;28;1344;-69
2024/03/30 06:15:05;;;;;;;;;;;7.20;99.90;;;6.59;100.00;95917.72;4963539;28;2202;-69
2024/03/30 06:17:38;;;;;;;;;;;7.20;99.90;;;6.72;100.00;95916.16;4959226;28;2554;-69
2024/03/30 06:20:05;;;;;;;;;;;7.30;99.90;;;6.51;100.00;95918.13;4959072;28;1726;-69
2024/03/30 06:22:32;;;;;;;;;;;7.30;99.90;;;6.53;100.00;95918.88;4964869;28;1410;-69
2024/03/30 06:24:58;;;;;;;;;;;7.30;99.90;;;6.69;100.00;95916.31;4962352;28;1624;-69
2024/03/30 06:27:24;;;;;;;;;;;7.30;99.90;;;6.67;100.00;95921.53;4981440;28;1684;-69
2024/03/30 06:29:50;;;;;;;;;;;7.40;99.90;;;6.81;100.00;95922.56;4959601;28;1553;-69
2024/03/30 06:32:17;;;;;;;;;;;7.40;99.90;;;6.81;100.00;95919.97;4960235;28;3281;-69
2024/03/30 06:34:43;;;;;;;;;;;7.40;99.90;;;6.85;100.00;95921.47;4960935;28;1613;-69
2024/03/30 06:37:08;;;;;;;;;;;7.50;99.90;;;6.88;100.00;95926.47;4949337;28;1720;-69
2024/03/30 06:45:04;;;;;;;;;;;7.50;99.90;;;6.95;100.00;95927.78;4959445;28;1631;-69
2024/03/30 06:47:29;;;;;;;;;;;7.60;99.90;;;6.92;100.00;95933.13;4962892;28;2116;-70
2024/03/30 06:49:55;;;;;;;;;;;7.50;99.90;;;6.93;100.00;95936.53;4960953;28;1727;-69
2024/03/30 06:52:21;;;;;;;;;;;7.60;99.90;;;7.00;100.00;95930.97;4990838;28;1532;-69
2024/03/30 06:54:47;;;;;;;;;;;7.70;99.90;;;7.05;100.00;95928.97;4960285;28;1627;-69
2024/03/30 06:57:13;;;;;;;;;;;7.70;99.90;;;6.96;100.00;95933.81;4959398;28;1575;-69
2024/03/30 06:59:39;;;;;;;;;;;7.70;99.90;;;7.11;100.00;95933.75;4960132;28;2113;-69
2024/03/30 07:02:04;;;;;;;;;;;7.80;99.90;;;7.18;100.00;95925.69;4960789;28;2378;-69
2024/03/30 07:04:30;;;;;;;;;;;7.90;99.90;;;7.29;100.00;95941.41;4990316;28;1444;-69
2024/03/30 07:06:56;;;;;;;;;;;7.90;99.90;;;7.29;100.00;95941.41;4976392;28;1603;-70
2024/03/30 07:09:22;;;;;;;;;;;7.90;99.90;;;7.17;100.00;95936.94;4975456;28;1831;-69
2024/03/30 07:11:48;;;;;;;;;;;8.00;99.90;;;7.30;100.00;95941.34;4961283;28;1639;-69
2024/03/30 07:14:14;;;;;;;;;;;8.00;99.90;;;7.53;100.00;95939.22;4959452;28;3190;-69
2024/03/30 07:16:40;;;;;;;;;;;8.10;99.90;;;7.70;100.00;95941.66;4957361;28;1623;-69
2024/03/30 07:19:06;;;;;;;;;;;8.20;99.90;;;7.68;100.00;95947.81;4958593;28;1902;-69
2024/03/30 07:21:32;;;;;;;;;;;8.30;99.90;;;7.75;100.00;95946.56;4973114;28;1638;-69
2024/03/30 07:23:58;;;;;;;;;;;8.30;99.90;;;7.73;100.00;95946.66;4961696;28;1398;-69
2024/03/30 07:26:24;;;;;;;;;;;8.40;99.90;;;7.81;100.00;95946.22;4964717;28;1769;-69
2024/03/30 07:28:50;;;;;;;;;;;8.40;99.90;;;7.79;100.00;95950.63;4959778;28;2384;-69
2024/03/30 07:31:16;;;;;;;;;;;8.50;99.90;;;7.89;100.00;95953.50;4943596;28;1485;-69
2024/03/30 07:33:42;;;;;;;;;;;8.50;99.90;;;7.86;100.00;95951.09;4961298;28;1408;-69
2024/03/30 07:36:08;;;;;;;;;;;8.50;99.90;;;7.89;100.00;95954.38;4959501;28;1400;-69
2024/03/30 07:38:35;;;;;;;;;;;8.60;99.90;;;8.03;100.00;95953.56;4978811;28;1922;-69
2024/03/30 07:41:01;;;;;;;;;;;8.50;99.90;;;8.07;100.00;95947.25;4991892;28;1617;-69
2024/03/30 07:43:27;;;;;;;;;;;8.70;99.90;;;8.32;100.00;95951.81;4959358;28;3072;-69
2024/03/30 07:45:53;;;;;;;;;;;8.70;99.90;;;8.34;100.00;95954.31;4957990;28;1382;-69
2024/03/30 07:48:19;;;;;;;;;;;8.80;99.90;;;8.52;100.00;95957.59;4957214;28;2254;-69
2024/03/30 07:50:45;;;;;;;;;;;8.90;99.90;;;8.75;100.00;95956.19;4992967;28;2505;-69
2024/03/30 07:53:11;;;;;;;;;;;9.00;99.90;;;8.92;100.00;95961.16;4962624;28;3566;-69
2024/03/30 07:55:36;;;;;;;;;;;9.20;99.90;;;8.71;100.00;95959.88;4929806;28;1811;-69
2024/03/30 07:58:02;;;;;;;;;;;9.30;99.90;;;8.89;100.00;95952.75;4960761;28;1903;-69
2024/03/30 08:00:28;;;;;;;;;;;9.30;99.90;;;8.79;100.00;95950.72;4960862;28;1609;-69
2024/03/30 08:03:00;;;;;;;;;;;9.30;99.90;;;8.87;100.00;95952.00;4958048;28;1727;-69
2024/03/30 08:05:27;;;;;;;;;;;9.40;99.90;;;8.94;100.00;95954.16;4961115;28;1517;-69
2024/03/30 08:07:53;;;;;;;;;;;9.40;99.90;;;9.08;100.00;95962.81;4961099;28;2179;-69
2024/03/30 08:10:19;;;;;;;;;;;9.50;99.90;;;9.03;100.00;95960.47;4963533;28;1659;-69
2024/03/30 08:12:45;;;;;;;;;;;9.60;99.90;;;9.15;100.00;95958.91;4977429;28;1720;-69
2024/03/30 08:15:11;;;;;;;;;;;9.70;99.90;;;9.34;100.00;95964.56;4960485;28;2403;-69
2024/03/30 08:17:37;;;;;;;;;;;9.70;99.90;;;9.44;100.00;95970.00;4993765;28;1980;-69
2024/03/30 08:20:04;;;;;;;;;;;9.80;99.90;;;9.46;100.00;95965.53;4962295;28;2191;-68
2024/03/30 08:22:30;;;;;;;;;;;10.00;99.90;;;9.73;100.00;95959.53;4963389;28;1713;-69
2024/03/30 08:24:56;;;;;;;;;;;10.00;99.90;;;9.82;100.00;95964.09;4960660;28;1597;-69
2024/03/30 08:27:22;;;;;;;;;;;10.10;99.90;;;9.86;100.00;95962.97;4958781;28;1372;-69
2024/03/30 08:29:48;;;;;;;;;;;10.20;99.90;;;9.63;100.00;95959.31;4962737;28;1717;-68
2024/03/30 08:32:14;;;;;;;;;;;10.30;99.90;;;9.80;100.00;95953.00;4961056;28;1768;-68
2024/03/30 08:34:40;;;;;;;;;;;10.40;99.90;;;10.00;100.00;95949.94;4965992;28;3223;-69
2024/03/30 08:37:06;;;;;;;;;;;10.40;99.90;;;10.05;100.00;95947.03;4963537;28;1640;-69
2024/03/30 08:39:32;;;;;;;;;;;10.50;99.90;;;10.09;100.00;95947.69;4961291;28;1926;-69
2024/03/30 08:41:58;;;;;;;;;;;10.50;99.90;;;10.37;100.00;95937.13;4960712;28;1500;-69
2024/03/30 08:44:23;;;;;;;;;;;10.60;99.90;;;10.30;100.00;95951.44;4993588;28;1803;-69
2024/03/30 08:46:49;;;;;;;;;;;10.70;99.90;;;10.18;100.00;95945.28;4959753;28;1501;-69
2024/03/30 08:49:15;;;;;;;;;;;10.80;99.90;;;10.29;100.00;95951.56;4978095;28;2094;-69
2024/03/30 08:51:41;;;;;;;;;;;10.80;99.90;;;10.26;100.00;95945.63;4962382;28;1620;-69
2024/03/30 08:54:08;;;;;;;;;;;10.80;99.90;;;10.31;100.00;95955.72;4959339;28;1517;-69
2024/03/30 08:56:35;;;;;;;;;;;10.80;99.90;;;10.40;100.00;95960.28;4961196;28;1714;-69
2024/03/30 08:59:02;;;;;;;;;;;10.90;99.90;;;10.67;100.00;95967.94;4954091;28;2480;-69
2024/03/30 09:01:32;;;;;;;;;;;11.00;99.90;;;10.55;100.00;95954.97;4970025;28;1754;-69
2024/03/30 09:03:58;;;;;;;;;;;11.10;99.90;;;10.78;100.00;95951.59;4967863;28;2031;-69
2024/03/30 09:06:24;;;;;;;;;;;11.20;99.90;;;10.77;100.00;95942.19;4994680;28;1509;-69
2024/03/30 09:08:50;;;;;;;;;;;11.20;99.90;;;11.09;100.00;95939.09;4963362;28;1898;-69
2024/03/30 09:11:15;;;;;;;;;;;11.40;99.90;;;11.40;100.00;95942.91;4946695;28;1327;-69
2024/03/30 09:13:41;;;;;;;;;;;11.70;99.90;;;11.61;100.00;95934.50;4947126;28;1637;-69
2024/03/30 09:16:08;;;;;;;;;;;11.90;99.90;;;12.02;100.00;95926.31;4960179;28;1614;-69
2024/03/30 09:18:34;;;;;;;;;;;12.10;99.90;;;12.26;100.00;95926.22;4961473;28;3794;-69
2024/03/30 09:21:02;;;;;;;;;;;12.50;99.90;;;11.84;100.00;95912.03;4976293;28;1392;-69
2024/03/30 09:23:29;;;;;;;;;;;12.60;99.90;;;11.93;100.00;95906.19;4961997;28;1425;-69
2024/03/30 09:25:55;;;;;;;;;;;12.50;99.90;;;11.88;100.00;95913.47;4960579;28;1762;-69
2024/03/30 09:28:20;;;;;;;;;;;12.50;99.90;;;11.85;100.00;95916.28;4959692;28;1618;-69
2024/03/30 09:30:47;;;;;;;;;;;12.40;99.90;;;11.76;100.00;95909.16;4992740;28;2134;-69
2024/03/30 09:33:13;;;;;;;;;;;12.40;99.90;;;11.55;100.00;95919.38;4965778;28;2618;-69
2024/03/30 09:35:40;;;;;;;;;;;12.30;99.90;;;11.55;100.00;95933.19;4963297;28;1618;-69
2024/03/30 09:38:06;;;;;;;;;;;12.20;99.90;;;11.43;100.00;95941.88;4959197;28;1989;-69
2024/03/30 09:40:33;;;;;;;;;;;12.10;99.90;;;11.50;100.00;95956.09;4957492;28;1310;-69
2024/03/30 09:43:02;;;;;;;;;;;12.00;99.90;;;10.86;100.00;95969.28;4960030;28;1340;-69
2024/03/30 09:45:29;;;;;;;;;;;11.90;99.90;;;10.69;100.00;95967.81;4974965;28;1543;-69
2024/03/30 09:48:00;;;;;;;;;;;11.80;99.90;;;10.63;100.00;95974.28;4978098;28;1619;-69
2024/03/30 09:50:26;;;;;;;;;;;11.60;99.90;;;10.46;100.00;95977.19;4957982;28;1717;-69
2024/03/30 09:52:53;;;;;;;;;;;11.50;99.90;;;10.63;100.00;96005.41;4959542;28;2415;-69
2024/03/30 09:55:19;;;;;;;;;;;11.30;99.90;;;10.51;100.00;96005.41;4940548;28;1618;-69
2024/03/30 09:57:49;;;;;;;;;;;11.40;99.90;;;10.52;100.00;96007.06;4959942;28;1902;-68
2024/03/30 10:00:17;;;;;;;;;;;11.30;99.90;;;10.48;100.00;96005.63;4960461;28;1596;-68
2024/03/30 10:02:44;;;;;;;;;;;11.20;99.90;;;10.61;100.00;96001.25;4962496;28;1614;-69
2024/03/30 10:05:10;;;;;;;;;;;11.20;99.90;;;10.67;100.00;95993.03;4941813;28;1913;-69
2024/03/30 10:07:50;;;;;;;;;;;11.20;99.90;;;10.92;100.00;95983.56;4961544;28;3435;-69
2024/03/30 10:10:17;;;;;;;;;;;11.20;99.90;;;11.02;100.00;95992.41;4973557;28;1772;-69
2024/03/30 10:12:55;;;;;;;;;;;11.30;99.90;;;11.18;100.00;95995.56;4962146;28;1615;-69
2024/03/30 10:15:35;;;;;;;;;;;11.30;99.90;;;10.95;100.00;96002.38;4976325;28;2936;-69
2024/03/30 10:18:01;;;;;;;;;;;11.30;99.90;;;11.18;100.00;95999.94;4975005;28;1907;-69
2024/03/30 10:20:28;;;;;;;;;;;11.50;99.90;;;11.14;100.00;96001.91;4958713;28;1479;-69
2024/03/30 10:22:53;;;;;;;;;;;11.50;99.90;;;11.30;100.00;96004.25;4961734;28;1966;-69
2024/03/30 10:25:20;;;;;;;;;;;11.70;99.90;;;11.46;100.00;95997.03;4977626;28;1583;-69
2024/03/30 10:27:46;;;;;;;;;;;11.80;99.90;;;11.83;100.00;95983.16;4961608;28;2099;-69
2024/03/30 10:30:13;;;;;;;;;;;12.00;99.90;;;11.98;100.00;95978.66;4976964;28;2426;-69
2024/03/30 10:32:43;;;;;;;;;;;12.10;99.90;;;11.81;100.00;95978.06;4958205;28;2696;-69
2024/03/30 10:35:10;;;;;;;;;;;12.20;99.90;;;11.81;100.00;95972.84;4930635;28;1562;-69
2024/03/30 10:37:36;;;;;;;;;;;12.40;99.90;;;12.00;100.00;95979.38;4956399;28;1626;-69
2024/03/30 10:40:09;;;;;;;;;;;12.50;99.90;;;12.25;100.00;95980.97;4958347;28;1989;-69
2024/03/30 10:42:38;;;;;;;;;;;12.50;99.90;;;12.21;100.00;95974.34;4991941;28;1571;-69
2024/03/30 10:45:05;;;;;;;;;;;12.60;99.90;;;12.46;100.00;95974.16;4982635;28;2617;-69
2024/03/30 10:47:33;;;;;;;;;;;12.70;99.90;;;12.65;100.00;95972.75;4977852;28;3451;-69
2024/03/30 10:49:59;;;;;;;;;;;12.80;99.90;;;12.46;100.00;95974.16;4941064;28;1294;-69
2024/03/30 10:52:26;;;;;;;;;;;12.90;99.90;;;12.76;100.00;95977.94;4957778;28;1500;-69
2024/03/30 10:54:53;;;;;;;;;;;12.90;99.90;;;12.79;100.00;95975.09;4961765;28;1385;-69
2024/03/30 10:57:18;;;;;;;;;;;12.90;99.90;;;12.81;100.00;95975.00;4959352;28;1615;-69
2024/03/30 10:59:46;;;;;;;;;;;13.00;99.90;;;12.98;100.00;95966.72;4963044;28;1899;-69
2024/03/30 11:02:19;;;;;;;;;;;13.10;99.90;;;12.61;100.00;95974.72;4992305;28;2112;-69
2024/03/30 11:04:45;;;;;;;;;;;13.10;99.90;;;12.83;100.00;95970.50;4958425;28;1772;-69
2024/03/30 11:07:14;;;;;;;;;;;13.20;99.90;;;12.73;100.00;95971.22;4973725;28;1644;-69
2024/03/30 11:09:42;;;;;;;;;;;13.30;99.90;;;12.83;100.00;95970.50;4960355;28;1444;-69
2024/03/30 11:12:12;;;;;;;;;;;13.30;99.90;;;12.67;100.00;95969.06;4960230;28;1695;-69
2024/03/30 11:14:39;;;;;;;;;;;13.30;99.90;;;12.73;100.00;95966.00;4977698;28;1759;-69
2024/03/30 11:17:31;;;;;;;;;;;13.40;99.90;;;12.63;100.00;95970.25;4960281;28;1658;-69
2024/03/30 11:20:11;;;;;;;;;;;13.30;99.90;;;12.59;100.00;95971.44;4958577;28;2162;-69
2024/03/30 11:22:52;;;;;;;;;;;13.30;99.90;;;12.78;100.00;95965.66;4958294;28;1606;-69
2024/03/30 11:25:24;;;;;;;;;;;13.30;99.90;;;12.68;100.00;95969.88;4991222;28;1922;-69
2024/03/30 11:27:55;;;;;;;;;;;13.30;99.90;;;12.59;100.00;95971.44;4960716;28;1624;-68
2024/03/30 11:30:47;;;;;;;;;;;13.30;99.90;;;12.72;100.00;95968.72;4962883;28;3237;-69
2024/03/30 11:33:21;;;;;;;;;;;13.30;99.90;;;12.88;100.00;95969.19;4961261;28;1428;-69